Time;durP1;ratioP1;P1;durP2;ratioP2;P2;SDS_P1;SDS_P2;PMS_P1;PMS_P2;Temp;Humidity;BMP_temperature;BMP_pressure;BME280_temperature;BME280_humidity;BME280_pressure;Samples;Min_cycle;Max_cycle;Signal;HPM_P1;HPM_P2
2023/09/23 00:02:17;;;;;;;3.95;3.45;;;;;;;16.04;100.00;98876.34;5055468;28;20056;-86
2023/09/23 00:04:43;;;;;;;3.75;3.38;;;;;;;15.92;100.00;98859.78;5055912;28;20118;-86
2023/09/23 00:07:09;;;;;;;5.32;3.95;;;;;;;15.99;100.00;98875.88;5055571;28;20074;-87
2023/09/23 00:09:36;;;;;;;5.45;3.40;;;;;;;15.95;100.00;98875.31;5056025;28;20472;-87
2023/09/23 00:12:02;;;;;;;4.80;3.10;;;;;;;15.89;100.00;98863.50;5073459;28;20131;-86
2023/09/23 00:14:28;;;;;;;2.97;2.63;;;;;;;16.01;100.00;98884.47;5073228;28;20491;-87
2023/09/23 00:16:54;;;;;;;3.25;2.63;;;;;;;15.79;100.00;98851.22;5073375;28;20032;-87
2023/09/23 00:19:19;;;;;;;3.50;3.13;;;;;;;15.93;100.00;98880.69;5073665;28;20037;-87
2023/09/23 00:21:45;;;;;;;3.65;2.60;;;;;;;15.91;100.00;98890.47;5073617;28;20036;-87
2023/09/23 00:24:13;;;;;;;2.88;2.67;;;;;;;15.84;100.00;98894.53;5073172;28;20071;-87
2023/09/23 00:26:38;;;;;;;2.92;2.72;;;;;;;15.85;100.00;98890.16;5055360;28;20029;-87
2023/09/23 00:29:04;;;;;;;3.00;2.70;;;;;;;15.65;100.00;98861.06;5073247;28;20025;-86
2023/09/23 00:31:29;;;;;;;3.92;3.42;;;;;;;15.81;100.00;98901.84;5072920;28;20183;-86
2023/09/23 00:33:56;;;;;;;3.53;2.47;;;;;;;15.66;100.00;98903.88;5072974;28;20357;-87
2023/09/23 00:36:22;;;;;;;3.28;2.60;;;;;;;15.67;100.00;98924.78;5072958;28;20052;-86
2023/09/23 00:38:47;;;;;;;4.28;3.42;;;;;;;15.77;100.00;98934.56;5073134;28;20025;-86
2023/09/23 00:41:13;;;;;;;4.10;3.53;;;;;;;15.55;100.00;98903.88;5054833;28;20024;-86
2023/09/23 00:43:40;;;;;;;3.85;3.47;;;;;;;15.68;100.00;98894.13;5072971;28;20036;-86
2023/09/23 00:46:06;;;;;;;4.70;3.60;;;;;;;15.48;100.00;98861.53;5054787;28;20021;-87
2023/09/23 00:48:39;;;;;;;4.03;3.20;;;;;;;15.55;100.00;98870.59;5072892;28;20032;-87
2023/09/23 00:51:09;;;;;;;4.43;3.60;;;;;;;15.71;100.00;98899.09;5054905;28;20034;-86
2023/09/23 00:53:36;;;;;;;5.10;3.65;;;;;;;15.61;100.00;98877.97;5072350;28;20039;-86
2023/09/23 00:56:02;;;;;;;4.38;3.97;;;;;;;15.62;100.00;98892.75;5072625;28;20090;-86
2023/09/23 00:58:28;;;;;;;5.53;3.60;;;;;;;15.65;100.00;98913.56;5054412;28;20033;-86
2023/09/23 01:00:55;;;;;;;5.80;3.47;;;;;;;15.76;100.00;98931.09;5072534;28;20025;-86
2023/09/23 01:03:21;;;;;;;3.25;2.90;;;;;;;15.74;100.00;98942.66;5072408;28;20078;-87
2023/09/23 01:05:48;;;;;;;4.93;3.17;;;;;;;15.70;100.00;98947.31;5049890;28;20037;-87
2023/09/23 01:08:20;;;;;;;4.90;2.90;;;;;;;15.61;100.00;98932.28;5049845;28;20120;-87
2023/09/23 01:10:48;;;;;;;3.70;2.92;;;;;;;15.55;100.00;98923.09;5049867;28;20064;-86
2023/09/23 01:13:13;;;;;;;3.97;3.42;;;;;;;15.66;100.00;98930.97;5049685;28;20025;-86
2023/09/23 01:15:40;;;;;;;6.10;3.45;;;;;;;15.46;100.00;98905.44;5049944;28;20052;-86
2023/09/23 01:18:13;;;;;;;4.43;3.67;;;;;;;15.61;100.00;98927.00;5049839;28;20507;-86
2023/09/23 01:20:42;;;;;;;4.70;3.30;;;;;;;15.66;100.00;98920.47;5049880;28;20052;-86
2023/09/23 01:23:10;;;;;;;4.45;3.17;;;;;;;15.51;100.00;98898.03;5049837;28;20388;-86
2023/09/23 01:25:39;;;;;;;5.43;3.47;;;;;;;15.30;100.00;98869.09;5049696;28;20033;-86
2023/09/23 01:28:11;;;;;;;6.78;4.65;;;;;;;15.43;100.00;98895.19;5033017;28;20029;-87
2023/09/23 01:30:45;;;;;;;5.93;5.10;;;;;;;15.30;100.00;98895.31;5049810;28;20071;-86
2023/09/23 01:33:13;;;;;;;6.75;4.43;;;;;;;15.39;100.00;98899.84;5049525;28;20087;-86
2023/09/23 01:35:40;;;;;;;7.07;5.95;;;;;;;15.17;100.00;98866.59;5033805;28;20438;-86
2023/09/23 01:38:06;;;;;;;6.50;5.45;;;;;;;15.25;100.00;98886.13;5054163;28;20028;-87
2023/09/23 01:40:36;;;;;;;7.72;5.15;;;;;;;14.90;100.00;98856.44;5071767;28;20032;-86
2023/09/23 01:43:02;;;;;;;7.05;5.03;;;;;;;15.11;100.00;98916.03;5054162;28;20032;-87
2023/09/23 01:45:28;;;;;;;8.95;6.00;;;;;;;15.09;100.00;98928.47;5053832;28;20036;-87
2023/09/23 01:47:56;;;;;;;7.63;5.82;;;;;;;15.18;100.00;98936.44;5072300;28;20032;-86
2023/09/23 01:50:27;;;;;;;6.07;5.13;;;;;;;15.24;100.00;98937.75;5071655;28;20040;-87
2023/09/23 01:52:55;;;;;;;5.53;4.93;;;;;;;15.17;100.00;98908.56;5071726;28;20025;-86
2023/09/23 01:55:21;;;;;;;5.70;4.60;;;;;;;15.22;100.00;98913.44;5071752;28;20066;-86
2023/09/23 01:57:49;;;;;;;5.18;4.68;;;;;;;15.28;100.00;98926.06;5053816;28;20124;-86
2023/09/23 02:00:21;;;;;;;6.85;4.50;;;;;;;15.29;100.00;98921.66;5071651;28;20486;-86
2023/09/23 02:02:48;;;;;;;6.65;4.78;;;;;;;15.19;100.00;98906.63;5053800;28;20039;-87
2023/09/23 02:05:15;;;;;;;4.78;4.18;;;;;;;15.32;100.00;98935.38;5073109;28;20411;-87
2023/09/23 02:07:41;;;;;;;5.28;3.90;;;;;;;15.30;100.00;98933.84;5058101;28;20029;-87
2023/09/23 02:10:08;;;;;;;5.22;4.38;;;;;;;15.35;100.00;98950.06;5076333;28;20031;-87
2023/09/23 02:12:34;;;;;;;4.45;4.05;;;;;;;15.22;100.00;98926.56;5075677;28;20052;-87
2023/09/23 02:14:59;;;;;;;6.75;5.05;;;;;;;15.33;100.00;98947.53;5075800;28;20032;-87
2023/09/23 02:17:25;;;;;;;4.90;4.45;;;;;;;15.20;100.00;98907.47;5075470;28;20021;-87
2023/09/23 02:19:53;;;;;;;6.45;5.15;;;;;;;15.32;100.00;98931.91;5057659;28;20021;-86
2023/09/23 02:22:19;;;;;;;6.78;5.35;;;;;;;15.05;100.00;98903.41;5057579;28;20455;-87
2023/09/23 02:24:45;;;;;;;5.75;4.93;;;;;;;15.10;100.00;98907.34;5057950;28;20029;-87
2023/09/23 02:27:10;;;;;;;7.25;5.93;;;;;;;15.10;100.00;98924.88;5057671;28;20032;-87
2023/09/23 02:29:36;;;;;;;6.70;6.05;;;;;;;15.18;100.00;98922.50;5075397;28;20418;-87
2023/09/23 02:32:02;;;;;;;7.10;6.15;;;;;;;14.95;100.00;98914.59;5075587;28;20111;-86
2023/09/23 02:34:30;;;;;;;8.05;6.05;;;;;;;15.00;100.00;98919.50;5057078;28;20048;-87
2023/09/23 02:36:55;;;;;;;8.98;6.53;;;;;;;14.95;100.00;98911.13;5057491;28;20021;-87
2023/09/23 02:39:21;;;;;;;7.82;6.13;;;;;;;14.86;100.00;98906.59;5057201;28;20120;-87
2023/09/23 02:41:50;;;;;;;11.27;7.15;;;;;;;14.82;100.00;98903.38;5057425;28;20052;-86
2023/09/23 02:44:22;;;;;;;7.63;6.57;;;;;;;14.52;100.00;98869.81;5075090;28;20356;-87
2023/09/23 02:46:49;;;;;;;8.95;7.07;;;;;;;14.67;100.00;98913.25;5075277;28;20036;-86
2023/09/23 02:49:15;;;;;;;10.18;7.68;;;;;;;14.37;100.00;98871.78;5075051;28;20131;-86
2023/09/23 02:51:44;;;;;;;7.30;6.53;;;;;;;14.54;100.00;98909.00;5057390;28;20617;-87
2023/09/23 02:54:13;;;;;;;7.85;5.38;;;;;;;14.34;100.00;98890.34;5075054;28;20101;-87
2023/09/23 02:56:39;;;;;;;7.03;5.43;;;;;;;14.27;100.00;98880.44;5074763;28;20039;-87
2023/09/23 02:59:13;;;;;;;6.35;5.70;;;;;;;14.22;100.00;98872.91;5074905;28;20543;-87
2023/09/23 03:01:45;;;;;;;7.63;6.32;;;;;;;14.31;100.00;98902.84;5074583;28;20530;-87
2023/09/23 03:04:19;;;;;;;6.30;5.70;;;;;;;14.43;100.00;98931.59;5056986;28;20139;-86
2023/09/23 03:06:49;;;;;;;6.88;5.75;;;;;;;14.30;100.00;98914.28;5074916;28;20040;-86
2023/09/23 03:09:25;;;;;;;7.47;5.88;;;;;;;14.40;100.00;98937.03;5056833;28;20441;-86
2023/09/23 03:11:57;;;;;;;6.63;6.03;;;;;;;14.40;100.00;98936.22;5056690;28;20044;-86
2023/09/23 03:14:28;;;;;;;9.60;5.38;;;;;;;14.55;100.00;98963.13;5056565;28;20126;-87
2023/09/23 03:16:54;;;;;;;6.45;5.60;;;;;;;14.34;100.00;98923.56;5074692;28;20082;-86
2023/09/23 03:19:32;;;;;;;6.43;5.20;;;;;;;14.52;100.00;98943.19;5032057;28;20493;-87
2023/09/23 03:21:58;;;;;;;6.13;5.53;;;;;;;14.55;100.00;98963.94;5015616;28;20131;-87
2023/09/23 03:24:25;;;;;;;7.13;5.53;;;;;;;14.58;100.00;98970.72;5031782;28;20038;-86
2023/09/23 03:26:55;;;;;;;6.75;4.93;;;;;;;14.70;100.00;98991.63;5015339;28;20033;-87
2023/09/23 03:29:22;;;;;;;6.88;5.28;;;;;;;14.68;100.00;98996.16;5033464;28;20041;-87
2023/09/23 03:31:48;;;;;;;5.35;4.47;;;;;;;14.73;100.00;99004.50;5052031;28;20472;-86
2023/09/23 03:34:14;;;;;;;5.30;4.25;;;;;;;14.77;100.00;99001.66;5051804;28;20033;-87
2023/09/23 03:36:43;;;;;;;4.90;4.40;;;;;;;14.69;100.00;98983.88;5051599;28;20040;-87
2023/09/23 03:39:09;;;;;;;4.63;4.10;;;;;;;14.85;100.00;99009.81;5034936;28;20032;-87
2023/09/23 03:41:37;;;;;;;4.45;3.53;;;;;;;14.78;100.00;99008.56;5034869;28;20120;-87
2023/09/23 03:44:07;;;;;;;6.78;4.90;;;;;;;14.82;100.00;99017.88;5035025;28;20052;-87
2023/09/23 03:46:33;;;;;;;5.20;4.68;;;;;;;14.86;100.00;99017.53;5051459;28;20035;-86
2023/09/23 03:49:00;;;;;;;4.10;3.70;;;;;;;14.80;100.00;99033.75;5034867;28;20025;-87
2023/09/23 03:51:25;;;;;;;5.55;4.53;;;;;;;14.78;100.00;99032.16;5054589;28;20102;-87
2023/09/23 03:53:51;;;;;;;5.78;4.60;;;;;;;14.71;100.00;99019.53;5074044;28;20024;-86
2023/09/23 03:56:19;;;;;;;5.55;4.53;;;;;;;14.76;100.00;99013.94;5055874;28;20107;-86
2023/09/23 03:58:44;;;;;;;9.95;5.00;;;;;;;14.78;100.00;99034.78;5074042;28;20051;-87
2023/09/23 04:01:13;;;;;;;5.70;4.40;;;;;;;14.78;100.00;99029.53;5074009;28;20024;-87
2023/09/23 04:03:39;;;;;;;5.15;4.10;;;;;;;14.81;100.00;99034.56;5073593;28;20020;-87
2023/09/23 04:06:05;;;;;;;6.38;4.50;;;;;;;14.64;100.00;99035.81;5055721;28;20068;-86
2023/09/23 04:08:31;;;;;;;4.88;4.22;;;;;;;14.63;100.00;99029.75;5073382;28;20397;-87
2023/09/23 04:10:56;;;;;;;5.05;4.55;;;;;;;14.42;100.00;98992.81;5073906;28;20067;-87
2023/09/23 04:13:21;;;;;;;4.93;3.90;;;;;;;14.43;100.00;99012.81;5050731;28;20102;-86
2023/09/23 04:15:47;;;;;;;6.20;4.50;;;;;;;14.45;100.00;99038.88;5034345;28;20044;-86
2023/09/23 04:18:12;;;;;;;4.80;4.32;;;;;;;14.30;100.00;99012.03;5051059;28;20170;-86
2023/09/23 04:20:38;;;;;;;7.95;5.32;;;;;;;14.32;100.00;99033.69;5050811;28;20213;-87
2023/09/23 04:23:03;;;;;;;7.50;5.22;;;;;;;14.33;100.00;99051.09;5051017;28;20040;-86
2023/09/23 04:25:29;;;;;;;5.78;5.10;;;;;;;14.23;100.00;99044.84;5050610;28;20041;-87
2023/09/23 04:27:54;;;;;;;5.85;5.15;;;;;;;14.17;100.00;99047.91;5050213;28;20066;-86
2023/09/23 04:30:20;;;;;;;6.28;4.68;;;;;;;14.07;100.00;99058.16;5034125;28;20148;-87
2023/09/23 04:32:46;;;;;;;5.60;4.63;;;;;;;13.98;100.00;99043.09;5033947;28;20028;-87
2023/09/23 04:35:18;;;;;;;6.78;5.45;;;;;;;13.85;100.00;99016.13;5050595;28;20116;-87
2023/09/23 04:37:44;;;;;;;;;;;;;;;14.03;100.00;99056.75;5050882;28;20037;-87
2023/09/23 04:40:10;;;;;;;5.65;4.47;;;;;;;13.95;100.00;99059.88;5050668;28;20007;-86
2023/09/23 04:42:41;;;;;;;6.47;4.88;;;;;;;13.81;100.00;99030.38;5033634;28;20369;-87
2023/09/23 04:45:08;;;;;;;6.88;4.65;;;;;;;13.92;100.00;99048.78;5033752;28;20098;-86
2023/09/23 04:47:35;;;;;;;5.32;4.57;;;;;;;13.81;100.00;99048.69;5033469;28;20082;-87
2023/09/23 04:50:01;;;;;;;5.68;5.05;;;;;;;13.86;100.00;99047.44;5054207;28;20047;-86
2023/09/23 04:52:29;;;;;;;6.88;4.80;;;;;;;13.90;100.00;99050.66;5054747;28;20028;-87
2023/09/23 04:54:54;;;;;;;6.28;5.25;;;;;;;13.86;100.00;99051.81;5072814;28;20017;-86
2023/09/23 04:57:20;;;;;;;6.85;5.43;;;;;;;14.02;100.00;99072.53;5054883;28;20150;-86
2023/09/23 04:59:46;;;;;;;6.18;5.45;;;;;;;14.05;100.00;99072.34;5054516;28;20082;-86
2023/09/23 05:02:17;;;;;;;8.63;5.57;;;;;;;14.15;100.00;99070.72;5072674;28;20039;-86
2023/09/23 05:04:46;;;;;;;11.37;6.13;;;;;;;13.94;100.00;99037.25;5072571;28;20477;-86
2023/09/23 05:07:12;;;;;;;8.45;5.95;;;;;;;14.01;100.00;99078.72;5054712;28;20029;-86
2023/09/23 05:09:38;;;;;;;10.40;6.00;;;;;;;13.90;100.00;99087.31;5072411;28;20032;-86
2023/09/23 05:12:04;;;;;;;8.25;5.95;;;;;;;13.88;100.00;99095.28;5054573;28;20490;-86
2023/09/23 05:14:30;;;;;;;8.60;5.97;;;;;;;13.83;100.00;99102.63;5054380;28;20449;-86
2023/09/23 05:16:58;;;;;;;8.98;6.25;;;;;;;13.84;100.00;99085.13;5072352;28;20059;-86
2023/09/23 05:19:23;;;;;;;9.45;5.47;;;;;;;13.99;100.00;99115.50;5072505;28;20060;-86
2023/09/23 05:21:53;;;;;;;10.07;6.93;;;;;;;13.90;100.00;99103.84;5054239;28;20447;-86
2023/09/23 05:24:18;;;;;;;7.93;5.50;;;;;;;13.92;100.00;99103.75;5072340;28;20032;-86
2023/09/23 05:26:44;;;;;;;10.90;6.70;;;;;;;13.96;100.00;99089.53;5053980;28;20035;-86
2023/09/23 05:29:09;;;;;;;8.48;6.47;;;;;;;14.05;100.00;99081.03;5054158;28;20111;-87
2023/09/23 05:31:36;;;;;;;10.10;6.03;;;;;;;14.26;100.00;99094.38;5071924;28;20111;-86
2023/09/23 05:34:03;;;;;;;8.63;6.15;;;;;;;14.18;100.00;99053.00;5054223;28;20020;-87
2023/09/23 05:36:28;;;;;;;12.05;6.18;;;;;;;14.45;100.00;99071.19;5070661;28;20063;-86
2023/09/23 05:38:53;;;;;;;11.50;7.00;;;;;;;14.66;100.00;99063.59;5071673;28;20468;-87
2023/09/23 05:41:24;;;;;;;9.68;6.43;;;;;;;14.92;100.00;99079.19;5072111;28;20042;-87
2023/09/23 05:43:52;;;;;;;11.52;6.47;;;;;;;15.15;100.00;99065.19;5071776;28;20029;-87
2023/09/23 05:46:18;;;;;;;8.55;6.10;;;;;;;15.70;100.00;99103.03;5071956;28;20051;-87
2023/09/23 05:48:44;;;;;;;9.60;6.03;;;;;;;15.96;100.00;99108.09;5053757;28;20029;-87
2023/09/23 05:51:10;;;;;;;8.43;5.47;;;;;;;16.19;100.00;99111.56;5071794;28;20094;-87
2023/09/23 05:53:35;;;;;;;8.48;5.57;;;;;;;16.69;100.00;99107.53;5071658;28;20020;-87
2023/09/23 05:56:00;;;;;;;7.15;5.13;;;;;;;16.98;100.00;99075.44;5071902;28;20112;-87
2023/09/23 05:58:26;;;;;;;7.00;5.25;;;;;;;17.37;100.00;99120.47;5053831;28;20116;-87
2023/09/23 06:00:51;;;;;;;8.77;5.47;;;;;;;17.40;100.00;99102.63;5071468;28;20063;-87
2023/09/23 06:03:17;;;;;;;8.45;5.15;;;;;;;17.63;100.00;99127.03;5071961;28;20406;-87
2023/09/23 06:05:43;;;;;;;8.05;5.03;;;;;;;17.71;100.00;99118.47;5071589;28;20028;-87
2023/09/23 06:08:09;;;;;;;8.73;5.28;;;;;;;18.07;100.00;99145.31;5071839;28;20035;-87
2023/09/23 06:10:36;;;;;;;5.38;4.03;;;;;;;18.32;100.00;99147.50;5071523;28;20033;-87
2023/09/23 06:13:02;;;;;;;6.72;4.25;;;;;;;18.37;100.00;99126.88;5053439;28;20055;-87
2023/09/23 06:15:28;;;;;;;6.75;4.57;;;;;;;18.76;100.00;99156.03;5071758;28;20483;-87
2023/09/23 06:17:54;;;;;;;6.03;4.65;;;;;;;18.97;100.00;99163.00;5087457;28;20032;-87
2023/09/23 06:20:20;;;;;;;6.43;4.38;;;;;;;19.01;100.00;99183.72;5073777;28;20463;-89
2023/09/23 06:22:46;;;;;;;8.15;4.85;;;;;;;18.76;100.00;99156.03;5091645;28;20024;-87
2023/09/23 06:25:11;;;;;;;6.82;4.30;;;;;;;19.09;100.00;99185.66;5091760;28;20051;-87
2023/09/23 06:27:37;;;;;;;5.15;4.00;;;;;;;19.25;100.00;99175.38;5091578;28;20067;-87
2023/09/23 06:30:02;;;;;;;7.10;4.68;;;;;;;19.28;100.00;99138.16;5091774;28;20071;-87
2023/09/23 06:32:28;;;;;;;6.65;4.45;;;;;;;19.65;100.00;99169.16;5091902;28;20068;-87
2023/09/23 06:34:54;;;;;;;5.38;4.30;;;;;;;19.79;100.00;99168.72;5073500;28;20024;-86
2023/09/23 06:37:19;;;;;;;5.75;3.97;;;;;;;20.06;100.00;99189.13;5073560;28;20032;-86
2023/09/23 06:39:45;;;;;;;4.95;4.10;;;;;;;20.07;100.00;99172.28;5091426;28;20016;-86
2023/09/23 06:42:10;;;;;;;5.85;4.28;;;;;;;20.01;100.00;99198.44;5073436;28;20189;-87
2023/09/23 06:44:35;;;;;;;5.60;3.78;;;;;;;19.94;100.00;99248.41;5091247;28;20028;-87
2023/09/23 06:47:06;;;;;;;5.40;4.18;;;;;;;19.73;100.00;99267.06;5073282;28;20024;-90
2023/09/23 06:49:31;;;;;;;4.90;4.07;;;;;;;19.69;100.00;99284.97;5065666;28;20484;-88
2023/09/23 06:51:57;;;;;;;9.48;4.63;;;;;;;19.54;100.00;99240.59;5046571;28;20083;-88
2023/09/23 06:54:22;;;;;;;5.90;5.07;;;;;;;19.39;100.00;99227.78;5048862;28;20038;-86
2023/09/23 06:56:47;;;;;;;5.88;4.47;;;;;;;19.26;100.00;99203.47;5052092;28;20042;-86
2023/09/23 06:59:13;;;;;;;8.13;4.82;;;;;;;19.06;100.00;99199.97;5052493;28;20036;-86
2023/09/23 07:01:38;;;;;;;7.43;4.85;;;;;;;19.12;100.00;99222.31;5052280;28;20438;-86
2023/09/23 07:04:05;;;;;;;5.78;4.88;;;;;;;18.94;100.00;99193.97;5052519;28;20041;-85
2023/09/23 07:06:31;;;;;;;4.40;4.00;;;;;;;19.10;100.00;99204.00;5052237;28;20179;-86
2023/09/23 07:08:56;;;;;;;6.68;4.30;;;;;;;19.38;100.00;99249.03;5035600;28;20120;-86
2023/09/23 07:11:23;;;;;;;4.75;4.20;;;;;;;19.39;100.00;99225.16;5043814;28;20439;-86
2023/09/23 07:13:48;;;;;;;5.82;4.07;;;;;;;19.65;100.00;99253.69;5043441;28;20374;-86
2023/09/23 07:16:14;;;;;;;3.65;3.30;;;;;;;19.67;100.00;99207.66;5052170;28;20066;-86
2023/09/23 07:18:40;;;;;;;5.97;3.75;;;;;;;20.03;100.00;99236.16;5051708;28;20036;-86
2023/09/23 07:21:05;;;;;;;3.85;3.22;;;;;;;20.05;100.00;99226.25;5035142;28;20081;-86
2023/09/23 07:23:30;;;;;;;4.65;2.92;;;;;;;20.25;100.00;99253.50;5051882;28;20036;-87
2023/09/23 07:25:56;;;;;;;3.00;2.63;;;;;;;20.35;98.96;99260.44;5034938;28;20032;-87
2023/09/23 07:28:21;;;;;;;6.38;2.75;;;;;;;20.58;98.90;99266.22;5068115;28;20049;-87
2023/09/23 07:30:46;;;;;;;3.00;2.58;;;;;;;20.68;95.25;99252.97;5056315;28;20521;-87
2023/09/23 07:33:12;;;;;;;3.72;2.92;;;;;;;20.93;95.21;99278.75;5074332;28;20027;-87
2023/09/23 07:35:37;;;;;;;5.53;2.80;;;;;;;20.95;95.03;99281.28;5074113;28;20092;-87
2023/09/23 07:38:02;;;;;;;4.55;2.35;;;;;;;20.98;92.90;99286.25;5074218;28;20020;-87
2023/09/23 07:40:29;;;;;;;3.25;2.65;;;;;;;20.81;92.79;99260.56;5074295;28;20039;-87
2023/09/23 07:42:55;;;;;;;3.20;2.75;;;;;;;20.99;93.02;99289.75;5055948;28;20074;-87
2023/09/23 07:45:21;;;;;;;3.53;2.70;;;;;;;20.99;92.49;99306.47;5074270;28;20028;-87
2023/09/23 07:47:47;;;;;;;3.47;2.58;;;;;;;20.74;92.98;99278.84;5055916;28;20031;-86
2023/09/23 07:50:12;;;;;;;3.67;2.83;;;;;;;20.76;93.02;99297.22;5074000;28;20100;-87
2023/09/23 07:52:38;;;;;;;3.20;2.80;;;;;;;20.56;93.42;99301.75;5055816;28;20033;-87
2023/09/23 07:55:04;;;;;;;3.05;2.40;;;;;;;20.28;92.90;99277.00;5055765;28;20056;-87
2023/09/23 07:57:30;;;;;;;2.60;2.35;;;;;;;20.27;92.91;99302.63;5073743;28;20047;-86
2023/09/23 07:59:56;;;;;;;2.25;2.05;;;;;;;20.19;93.62;99313.91;5055692;28;20035;-86
2023/09/23 08:02:21;;;;;;;2.88;2.45;;;;;;;19.76;94.10;99269.41;5054881;28;20476;-87
2023/09/23 08:04:46;;;;;;;2.53;2.33;;;;;;;19.85;93.20;99310.88;5055460;28;20045;-87
2023/09/23 08:07:12;;;;;;;3.72;2.20;;;;;;;19.47;92.76;99292.28;5073746;28;20495;-87
2023/09/23 08:09:37;;;;;;;2.60;2.40;;;;;;;19.41;93.69;99309.53;5055449;28;20480;-86
2023/09/23 08:12:03;;;;;;;2.65;2.45;;;;;;;19.12;95.58;99288.31;5073566;28;20483;-86
2023/09/23 08:14:29;;;;;;;2.15;1.95;;;;;;;19.01;95.29;99291.09;5073605;28;20067;-86
2023/09/23 08:16:55;;;;;;;2.30;2.10;;;;;;;19.14;96.48;99313.63;5073417;28;20027;-86
2023/09/23 08:19:21;;;;;;;2.20;2.00;;;;;;;19.16;96.04;99310.84;5073346;28;20412;-85
2023/09/23 08:21:46;;;;;;;2.30;2.10;;;;;;;19.23;96.65;99325.19;5055180;28;20150;-85
2023/09/23 08:24:12;;;;;;;4.70;2.50;;;;;;;19.41;95.62;99360.53;5073376;28;20025;-84
2023/09/23 08:26:38;;;;;;;2.38;2.17;;;;;;;19.39;95.85;99337.88;5072780;28;20048;-84
2023/09/23 08:29:05;;;;;;;2.47;2.28;;;;;;;19.39;95.49;99327.31;5073450;28;20426;-84
2023/09/23 08:31:30;;;;;;;2.08;1.85;;;;;;;19.47;95.55;99345.09;5073381;28;20032;-87
2023/09/23 08:33:55;;;;;;;2.20;2.00;;;;;;;19.47;95.15;99348.63;5066561;28;20049;-84
2023/09/23 08:36:21;;;;;;;6.13;3.08;;;;;;;19.34;94.03;99340.94;5052875;28;20036;-83
2023/09/23 08:38:46;;;;;;;2.13;1.92;;;;;;;19.36;92.88;99346.91;5052710;28;20032;-84
2023/09/23 08:41:15;;;;;;;4.45;2.45;;;;;;;19.28;93.61;99340.63;5052955;28;20025;-83
2023/09/23 08:43:42;;;;;;;2.20;2.00;;;;;;;19.26;93.22;99359.25;5052694;28;20100;-83
2023/09/23 08:46:09;;;;;;;4.47;2.10;;;;;;;19.23;93.55;99356.88;5052798;28;20063;-83
2023/09/23 08:48:38;;;;;;;2.97;2.53;;;;;;;19.34;93.21;99362.06;5053089;28;20017;-83
2023/09/23 08:51:06;;;;;;;2.53;2.15;;;;;;;19.23;92.73;99329.63;5052853;28;20064;-83
2023/09/23 08:53:38;;;;;;;3.15;2.10;;;;;;;19.33;93.77;99341.88;5052678;28;20025;-83
2023/09/23 08:56:05;;;;;;;2.50;2.30;;;;;;;19.39;92.72;99359.84;5053077;28;20100;-83
2023/09/23 08:58:30;;;;;;;2.38;2.08;;;;;;;19.29;93.39;99360.78;5053086;28;20111;-83
2023/09/23 09:00:56;;;;;;;2.58;2.28;;;;;;;19.31;94.67;99372.88;5052646;28;20076;-83
2023/09/23 09:03:22;;;;;;;2.35;2.13;;;;;;;19.10;94.11;99340.44;5052708;28;20040;-83
2023/09/23 09:05:47;;;;;;;3.92;2.55;;;;;;;19.09;94.58;99354.59;5034486;28;20048;-83
2023/09/23 09:08:14;;;;;;;2.88;1.90;;;;;;;19.10;94.11;99354.47;5052352;28;20025;-84
2023/09/23 09:10:40;;;;;;;3.47;2.50;;;;;;;19.18;94.77;99367.84;5052383;28;20040;-85
2023/09/23 09:13:06;;;;;;;2.30;2.10;;;;;;;19.17;92.78;99347.69;5052249;28;20060;-84
2023/09/23 09:15:36;;;;;;;2.47;2.28;;;;;;;19.31;94.24;99382.63;5052323;28;20078;-86
2023/09/23 09:18:04;;;;;;;2.60;2.28;;;;;;;19.26;93.27;99374.25;5052194;28;20028;-86
2023/09/23 09:20:30;;;;;;;2.70;1.85;;;;;;;19.28;93.36;99367.03;5052265;28;20155;-86
2023/09/23 09:22:56;;;;;;;2.60;2.20;;;;;;;19.13;92.69;99362.13;5051983;28;20111;-86
2023/09/23 09:25:21;;;;;;;2.20;2.00;;;;;;;19.15;92.54;99373.38;5034436;28;20257;-86
2023/09/23 09:27:48;;;;;;;2.78;2.58;;;;;;;18.98;92.35;99339.69;5052072;28;20021;-86
2023/09/23 09:30:13;;;;;;;2.90;1.85;;;;;;;19.20;91.72;99384.38;5052672;28;20411;-84
2023/09/23 09:32:43;;;;;;;2.20;2.00;;;;;;;19.14;93.79;99363.78;5052178;28;20032;-85
2023/09/23 09:35:14;;;;;;;2.92;1.98;;;;;;;19.33;93.84;99375.38;5051953;28;20067;-85
2023/09/23 09:37:44;;;;;;;2.15;1.95;;;;;;;19.47;94.74;99380.31;5052273;28;20032;-85
2023/09/23 09:40:17;;;;;;;2.78;2.35;;;;;;;19.40;92.62;99358.88;5052421;28;20503;-84
2023/09/23 09:42:47;;;;;;;2.15;1.85;;;;;;;19.53;93.75;99371.00;5051827;28;20032;-85
2023/09/23 09:45:15;;;;;;;3.20;2.47;;;;;;;19.55;93.81;99356.69;5052005;28;20032;-85
2023/09/23 09:47:44;;;;;;;2.10;1.90;;;;;;;19.80;92.53;99384.41;5051779;28;20423;-84
2023/09/23 09:50:11;;;;;;;2.30;2.10;;;;;;;19.83;90.54;99380.69;5051999;28;20024;-84
2023/09/23 09:52:43;;;;;;;1.63;1.52;;;;;;;19.92;91.20;99380.69;5052078;28;20094;-85
2023/09/23 09:55:10;;;;;;;1.83;1.73;;;;;;;19.97;89.93;99385.56;5033841;28;20108;-85
2023/09/23 09:57:36;;;;;;;2.15;1.95;;;;;;;19.91;87.74;99381.66;5051837;28;20450;-84
2023/09/23 10:00:16;;;;;;;1.70;1.60;;;;;;;19.90;87.34;99374.72;5033608;28;20064;-84
2023/09/23 10:02:47;;;;;;;1.88;1.63;;;;;;;19.71;84.51;99353.53;5051521;28;20567;-84
2023/09/23 10:05:17;;;;;;;2.00;1.80;;;;;;;19.83;84.53;99365.66;5051806;28;20036;-84
2023/09/23 10:07:55;;;;;;;1.70;1.50;;;;;;;19.53;84.21;99345.41;5051540;28;20040;-84
2023/09/23 10:10:31;;;;;;;2.05;1.48;;;;;;;19.78;84.95;99389.03;5051798;28;20549;-84
2023/09/23 10:13:25;;;;;;;1.80;1.70;;;;;;;19.66;84.44;99371.63;5051773;28;20127;-84
2023/09/23 10:15:51;;;;;;;1.60;1.50;;;;;;;19.85;85.10;99389.31;4951076;29;20391;-84
2023/09/23 10:18:18;;;;;;;2.33;1.75;;;;;;;19.84;85.13;99374.41;4951251;28;20040;-84
2023/09/23 10:20:48;;;;;;;1.90;1.55;;;;;;;19.89;82.69;99396.84;4951214;29;20039;-84
2023/09/23 10:23:15;;;;;;;2.13;1.92;;;;;;;19.91;83.41;99389.59;4951290;28;20027;-84
2023/09/23 10:25:43;;;;;;;1.90;1.70;;;;;;;19.80;83.25;99381.78;4951842;28;20046;-84
2023/09/23 10:28:22;;;;;;;2.60;1.70;;;;;;;19.87;83.86;99382.06;4954800;28;20101;-84
2023/09/23 10:31:04;;;;;;;1.63;1.33;;;;;;;20.01;83.64;99389.59;4967074;28;20046;-88
2023/09/23 10:33:32;;;;;;;2.22;1.67;;;;;;;20.02;83.90;99393.94;4973597;28;20039;-88
2023/09/23 10:35:58;;;;;;;1.92;1.70;;;;;;;19.85;83.58;99349.69;4974059;28;20174;-84
2023/09/23 10:38:31;;;;;;;2.90;1.80;;;;;;;19.88;84.22;99357.31;4974181;28;20030;-84
2023/09/23 10:40:57;;;;;;;1.90;1.60;;;;;;;20.09;84.45;99373.88;4974047;28;20031;-84
2023/09/23 10:43:22;;;;;;;1.88;1.77;;;;;;;20.19;83.76;99387.13;4974228;28;20027;-84
2023/09/23 10:45:54;;;;;;;2.63;1.75;;;;;;;20.19;83.24;99385.31;4973856;28;20042;-84
2023/09/23 10:48:20;;;;;;;1.98;1.40;;;;;;;20.10;83.56;99354.41;4973985;28;20035;-84
2023/09/23 10:50:46;;;;;;;1.75;1.60;;;;;;;20.25;83.76;99378.63;4973345;28;20038;-84
2023/09/23 10:53:12;;;;;;;3.45;1.90;;;;;;;20.27;82.87;99386.41;5062952;28;20044;-84
2023/09/23 10:55:39;;;;;;;1.70;1.60;;;;;;;20.25;82.86;99383.91;5074963;28;20029;-84
2023/09/23 10:58:08;;;;;;;2.78;1.77;;;;;;;20.15;83.46;99372.50;5074795;28;20422;-84
2023/09/23 11:00:38;;;;;;;2.28;1.90;;;;;;;20.18;84.91;99365.13;5074898;28;20036;-86
2023/09/23 11:03:09;;;;;;;2.55;1.80;;;;;;;20.27;84.36;99370.53;5056937;28;20024;-88
2023/09/23 11:05:38;;;;;;;1.60;1.50;;;;;;;20.33;84.83;99384.03;5057154;28;20036;-87
2023/09/23 11:08:10;;;;;;;2.92;1.80;;;;;;;20.52;85.67;99411.47;5074395;28;20032;-87
2023/09/23 11:10:38;;;;;;;;;;;;;;;20.52;84.42;99407.06;5075321;28;20028;-92
2023/09/23 11:13:08;;;;;;;2.42;2.08;;;;;;;20.40;83.92;99397.56;5053029;28;19946;-85
2023/09/23 11:15:36;;;;;;;1.90;1.70;;;;;;;20.54;84.04;99412.19;5054904;28;20033;-89
2023/09/23 11:18:01;;;;;;;1.77;1.35;;;;;;;20.55;83.66;99403.28;5053206;28;20494;-89
2023/09/23 11:20:31;;;;;;;2.05;1.70;;;;;;;20.52;83.58;99390.31;5053863;28;20036;-84
2023/09/23 11:23:03;;;;;;;4.43;1.73;;;;;;;20.51;82.58;99391.28;5052562;28;20467;-84
2023/09/23 11:25:29;;;;;;;2.05;1.58;;;;;;;20.59;82.75;99413.41;5054274;28;20124;-85
2023/09/23 11:27:59;;;;;;;1.80;1.65;;;;;;;20.46;82.29;99391.69;5054199;28;20502;-84
2023/09/23 11:30:25;;;;;;;2.78;1.45;;;;;;;20.59;82.38;99413.41;5054484;28;20040;-85